EGXC

RAF Coningsby Airport

Coningsby, United Kingdom
METAR EGXC 250450Z 36014KT 3500 +SHRA FEW011 BKN025 BKN050 12/11 Q1018 YLO1
Observed Flight Rules
May-25 @ 04:50 UTC (29 minutes ago) Instrument Flight Rules
Wind Visibility Clouds Conditions
360° at 14 knots 3,492 meters
  • Few at 1,100' AGL
  • Broken at 2,500' AGL
  • Broken at 5,000' AGL
  • Heavy Rain
Temperatures Readings
Current 12°C / 54°F
Dewpoint 11°C / 52°F
Humidity 94%
Altimeter 30.06" Hg
Pressure 1018 hPa
Elevation 7
METAR EGXC 250450Z 36014KT 3500 +SHRA FEW011 BKN025 BKN050 12/11 Q1018 YLO1
Observed Flight Rules
May-25 @ 04:50 UTC
(29 minutes ago)
IFR
Wind Visibility
360° at 14 knots 3,492 meters
Clouds
  • Few at 1,100' AGL
  • Broken at 2,500' AGL
  • Broken at 5,000' AGL
Conditions
  • Heavy Rain
Temperature Dewpoint
12°C / 54°F 11°C / 52°F
Humidity Altimeter Pressure
94% 30.06" Hg 1018 hPa